createdAt,value
2017-10-03T00:00:44.946Z,14.40
2017-10-03T00:03:26.292Z,14.40
2017-10-03T00:05:54.543Z,14.30
2017-10-03T00:08:22.822Z,14.20
2017-10-03T00:10:51.098Z,14.30
2017-10-03T00:13:23.063Z,14.30
2017-10-03T00:15:51.331Z,14.20
2017-10-03T00:18:19.609Z,14.10
2017-10-03T00:20:48.886Z,14.20
2017-10-03T00:23:17.140Z,14.10
2017-10-03T00:25:52.620Z,14.20
2017-10-03T00:28:20.871Z,14.20
2017-10-03T00:30:49.155Z,14.20
2017-10-03T00:33:22.668Z,14.30
2017-10-03T00:35:50.976Z,14.10
2017-10-03T00:38:26.615Z,14.00
2017-10-03T00:40:54.921Z,14.10
2017-10-03T00:43:29.686Z,14.00
2017-10-03T00:45:57.943Z,14.10
2017-10-03T00:48:26.234Z,14.10
2017-10-03T00:50:54.492Z,14.00
2017-10-03T00:53:30.192Z,14.20
2017-10-03T00:55:59.403Z,14.20
2017-10-03T00:58:28.674Z,14.10
2017-10-03T01:00:56.940Z,14.20
2017-10-03T01:03:37.646Z,14.10
2017-10-03T01:06:05.938Z,14.00
2017-10-03T01:08:48.304Z,14.10
2017-10-03T01:11:16.594Z,14.00
2017-10-03T01:13:47.950Z,14.00
2017-10-03T01:16:16.241Z,13.90
2017-10-03T01:18:46.498Z,13.90
2017-10-03T01:21:14.788Z,14.00
2017-10-03T01:24:06.204Z,14.00
2017-10-03T01:26:34.846Z,14.10
2017-10-03T01:29:04.230Z,14.00
2017-10-03T01:31:35.076Z,14.00
2017-10-03T01:34:04.722Z,14.10
2017-10-03T01:36:34.084Z,13.90
2017-10-03T01:39:23.802Z,13.90
2017-10-03T01:41:52.083Z,13.90
2017-10-03T01:44:20.370Z,14.00
2017-10-03T01:46:48.663Z,14.00
2017-10-03T01:49:16.923Z,13.80
2017-10-03T01:51:45.183Z,13.90
2017-10-03T01:54:14.408Z,13.90
2017-10-03T01:56:42.713Z,13.90
2017-10-03T01:59:21.187Z,13.90
2017-10-03T02:01:49.478Z,13.90
2017-10-03T02:04:21.538Z,14.00
2017-10-03T02:06:49.787Z,14.00
2017-10-03T02:09:28.291Z,13.90
2017-10-03T02:11:56.576Z,13.90
2017-10-03T02:14:24.860Z,13.90
2017-10-03T02:16:53.156Z,13.90
2017-10-03T02:19:25.582Z,13.90
2017-10-03T02:21:53.862Z,13.80
2017-10-03T02:24:33.218Z,13.80
2017-10-03T02:27:01.484Z,13.70
2017-10-03T02:29:29.784Z,13.70
2017-10-03T02:31:58.050Z,13.60
2017-10-03T02:34:49.250Z,13.60
2017-10-03T02:37:16.780Z,13.60
2017-10-03T02:39:55.235Z,13.60
2017-10-03T02:42:23.496Z,13.60
2017-10-03T02:44:52.734Z,13.60
2017-10-03T02:47:21.031Z,13.60
2017-10-03T02:49:52.720Z,13.50
2017-10-03T02:52:21.008Z,13.60
2017-10-03T02:54:49.271Z,13.50
2017-10-03T02:57:17.576Z,13.50
2017-10-03T03:00:00.968Z,13.50
2017-10-03T03:02:29.255Z,13.50
2017-10-03T03:07:51.513Z,13.40
2017-10-03T03:10:19.855Z,13.50
2017-10-03T03:15:51.858Z,13.50
2017-10-03T03:18:20.110Z,13.40
2017-10-03T03:20:48.358Z,13.40
2017-10-03T03:23:27.407Z,13.40
2017-10-03T03:25:55.687Z,13.50
2017-10-03T03:28:24.981Z,13.50
2017-10-03T03:30:53.235Z,13.50
2017-10-03T03:33:34.531Z,13.40
2017-10-03T03:36:02.810Z,13.30
2017-10-03T03:38:33.994Z,13.30
2017-10-03T03:41:03.615Z,13.20
2017-10-03T03:43:33.502Z,13.20
2017-10-03T03:46:02.763Z,13.20
2017-10-03T03:48:34.067Z,13.20
2017-10-03T03:51:03.676Z,13.20
2017-10-03T03:53:34.351Z,13.10
2017-10-03T03:56:02.674Z,13.10
2017-10-03T03:58:32.096Z,13.00
2017-10-03T04:01:01.052Z,13.10
2017-10-03T04:03:37.674Z,13.10
2017-10-03T04:06:05.935Z,13.20
2017-10-03T04:08:34.731Z,13.00
2017-10-03T04:11:03.966Z,13.00
2017-10-03T04:13:35.520Z,13.10
2017-10-03T04:16:04.896Z,13.00
2017-10-03T04:18:36.523Z,13.10
2017-10-03T04:21:04.815Z,13.10
2017-10-03T04:23:43.355Z,13.10
2017-10-03T04:26:11.656Z,13.10
2017-10-03T04:28:41.844Z,13.10
2017-10-03T04:31:10.135Z,13.10
2017-10-03T04:33:46.606Z,13.10
2017-10-03T04:36:14.896Z,13.10
2017-10-03T04:38:48.319Z,13.10
2017-10-03T04:41:16.571Z,13.10
2017-10-03T04:44:04.241Z,13.20
2017-10-03T04:46:34.103Z,13.10
2017-10-03T04:49:04.469Z,13.20
2017-10-03T04:51:32.756Z,13.10
2017-10-03T04:54:24.948Z,13.00
2017-10-03T04:56:53.243Z,13.00
2017-10-03T04:59:22.516Z,13.00
2017-10-03T05:01:50.775Z,13.10
2017-10-03T05:04:22.240Z,13.00
2017-10-03T05:06:50.490Z,13.00
2017-10-03T05:09:18.795Z,12.90
2017-10-03T05:11:47.059Z,13.00
2017-10-03T05:14:15.324Z,12.90
2017-10-03T05:16:43.620Z,13.00
2017-10-03T05:22:05.941Z,12.90
2017-10-03T05:24:35.515Z,12.90
2017-10-03T05:27:04.200Z,12.90
2017-10-03T05:29:53.433Z,13.00
2017-10-03T05:32:21.688Z,13.00
2017-10-03T05:34:50.925Z,13.00
2017-10-03T05:37:19.189Z,13.00
2017-10-03T05:39:52.958Z,12.90
2017-10-03T05:42:21.221Z,12.90
2017-10-03T05:44:56.690Z,13.00
2017-10-03T05:47:24.946Z,13.00
2017-10-03T05:50:03.907Z,13.00
2017-10-03T05:52:34.043Z,13.00
2017-10-03T05:55:03.676Z,12.90
2017-10-03T05:57:34.036Z,12.90
2017-10-03T06:00:03.634Z,13.00
2017-10-03T06:02:34.206Z,12.90
2017-10-03T06:05:12.064Z,12.90
2017-10-03T06:07:40.356Z,12.90
2017-10-03T06:10:12.551Z,13.00
2017-10-03T06:12:40.811Z,13.00
2017-10-03T06:15:25.788Z,13.00
2017-10-03T06:17:54.035Z,13.00
2017-10-03T06:23:14.920Z,12.90
2017-10-03T06:25:43.174Z,13.00
2017-10-03T06:28:12.681Z,13.00
2017-10-03T06:30:40.952Z,12.90
2017-10-03T06:33:21.336Z,12.90
2017-10-03T06:35:49.603Z,13.00
2017-10-03T06:38:41.662Z,12.90
2017-10-03T06:41:09.960Z,12.90
2017-10-03T06:43:38.264Z,13.00
2017-10-03T06:46:10.410Z,13.00
2017-10-03T06:48:48.760Z,12.90
2017-10-03T06:51:17.047Z,12.90
2017-10-03T06:53:53.831Z,13.00
2017-10-03T06:56:22.120Z,13.00
2017-10-03T06:58:51.323Z,13.10
2017-10-03T07:01:34.205Z,13.20
2017-10-03T07:04:04.034Z,13.10
2017-10-03T07:06:34.346Z,13.30
2017-10-03T07:09:02.657Z,13.20
2017-10-03T07:11:32.007Z,13.20
2017-10-03T07:14:00.280Z,13.20
2017-10-03T07:16:28.571Z,13.30
2017-10-03T07:18:56.825Z,13.30
2017-10-03T07:21:25.088Z,13.10
2017-10-03T07:23:53.362Z,13.20
2017-10-03T07:26:21.648Z,13.20
2017-10-03T07:28:49.915Z,13.20
2017-10-03T07:31:18.217Z,13.30
2017-10-03T07:33:46.516Z,13.30
2017-10-03T07:36:14.772Z,13.30
2017-10-03T07:38:43.048Z,13.40
2017-10-03T07:41:11.303Z,13.40
2017-10-03T07:43:39.592Z,13.50
2017-10-03T07:46:07.864Z,13.50
2017-10-03T07:48:36.154Z,13.50
2017-10-03T07:51:05.508Z,13.40
2017-10-03T07:53:43.733Z,13.40
2017-10-03T07:56:12.034Z,13.50
2017-10-03T07:58:46.836Z,13.50
2017-10-03T08:01:14.354Z,13.50
2017-10-03T08:03:42.668Z,13.40
2017-10-03T08:06:10.926Z,13.50
2017-10-03T08:08:42.464Z,13.60
2017-10-03T08:11:10.747Z,13.80
2017-10-03T08:14:03.951Z,13.80
2017-10-03T08:16:33.427Z,13.90
2017-10-03T08:19:04.721Z,14.00
2017-10-03T08:21:34.092Z,14.00
2017-10-03T08:24:12.672Z,14.10
2017-10-03T08:26:40.967Z,14.10
2017-10-03T08:29:14.828Z,14.20
2017-10-03T08:31:43.119Z,14.20
2017-10-03T08:34:11.383Z,14.20
2017-10-03T08:36:39.642Z,14.30
2017-10-03T08:39:17.892Z,14.30
2017-10-03T08:41:46.156Z,14.30
2017-10-03T08:47:09.012Z,14.30
2017-10-03T08:49:37.306Z,14.40
2017-10-03T08:52:06.541Z,14.50
2017-10-03T08:54:34.801Z,14.60
2017-10-03T08:57:19.922Z,14.60
2017-10-03T08:59:48.170Z,14.70
2017-10-03T09:02:26.401Z,14.80
2017-10-03T09:04:54.662Z,14.70
2017-10-03T09:07:22.956Z,14.80
2017-10-03T09:09:50.461Z,14.80
2017-10-03T09:12:18.975Z,14.90
2017-10-03T09:14:47.261Z,15.00
2017-10-03T09:17:15.515Z,15.00
2017-10-03T09:19:43.786Z,15.00
2017-10-03T09:22:25.669Z,15.10
2017-10-03T09:24:53.939Z,15.10
2017-10-03T09:27:33.863Z,15.00
2017-10-03T09:30:02.754Z,15.10
2017-10-03T09:32:33.956Z,15.10
2017-10-03T09:35:04.032Z,15.20
2017-10-03T09:37:34.330Z,15.40
2017-10-03T09:40:04.376Z,15.50
2017-10-03T09:42:52.195Z,15.60
2017-10-03T09:45:20.452Z,15.70
2017-10-03T09:47:49.679Z,15.70
2017-10-03T09:50:17.980Z,15.90
2017-10-03T09:52:49.163Z,16.00
2017-10-03T09:55:17.451Z,16.00
2017-10-03T09:57:47.744Z,15.70
2017-10-03T10:00:15.992Z,15.70
2017-10-03T10:02:46.295Z,15.70
2017-10-03T10:05:14.587Z,15.80
2017-10-03T10:07:47.460Z,15.90
2017-10-03T10:10:15.744Z,15.90
2017-10-03T10:12:45.028Z,16.00
2017-10-03T10:15:13.271Z,16.20
2017-10-03T10:20:48.349Z,16.40
2017-10-03T10:23:15.884Z,16.50
2017-10-03T10:25:45.116Z,16.30
2017-10-03T10:28:13.373Z,16.20
2017-10-03T10:30:55.424Z,16.20
2017-10-03T10:33:23.684Z,16.20
2017-10-03T10:35:51.949Z,16.10
2017-10-03T10:38:20.246Z,16.10
2017-10-03T10:41:08.268Z,16.20
2017-10-03T10:43:36.585Z,16.30
2017-10-03T10:46:28.020Z,16.10
2017-10-03T10:48:56.283Z,15.90
2017-10-03T10:51:38.539Z,15.70
2017-10-03T10:54:06.836Z,15.70
2017-10-03T10:56:38.993Z,15.60
2017-10-03T10:59:07.287Z,15.80
2017-10-03T11:01:52.677Z,15.80
2017-10-03T11:04:20.935Z,15.70
2017-10-03T11:06:49.191Z,15.60
2017-10-03T11:09:17.460Z,15.60
2017-10-03T11:11:45.727Z,15.60
2017-10-03T11:14:14.024Z,15.50
2017-10-03T11:16:49.236Z,15.60
2017-10-03T11:19:17.532Z,15.80
2017-10-03T11:21:47.714Z,16.00
2017-10-03T11:24:35.131Z,16.20
2017-10-03T11:27:04.416Z,16.40
2017-10-03T11:29:34.200Z,16.40
2017-10-03T11:32:05.550Z,16.70
2017-10-03T11:34:34.999Z,16.80
2017-10-03T11:37:04.049Z,16.90
2017-10-03T11:39:33.556Z,16.70
2017-10-03T11:42:04.359Z,16.70
2017-10-03T11:44:33.615Z,16.50
2017-10-03T11:47:03.926Z,16.30
2017-10-03T11:49:35.623Z,16.20
2017-10-03T11:52:04.878Z,16.00
2017-10-03T11:54:43.363Z,15.80
2017-10-03T11:57:11.620Z,15.80
2017-10-03T11:59:40.117Z,15.70
2017-10-03T12:02:08.407Z,15.70
2017-10-03T12:04:50.123Z,15.90
2017-10-03T12:07:18.410Z,16.00
2017-10-03T12:09:45.902Z,16.00
2017-10-03T12:12:14.155Z,15.90
2017-10-03T12:14:42.482Z,15.90
2017-10-03T12:17:10.731Z,16.00
2017-10-03T12:19:38.992Z,16.40
2017-10-03T12:22:07.275Z,16.50
2017-10-03T12:24:35.523Z,16.60
2017-10-03T12:27:05.184Z,16.90
2017-10-03T12:29:34.390Z,16.90
2017-10-03T12:32:03.666Z,16.90
2017-10-03T12:34:33.306Z,17.20
2017-10-03T12:37:01.570Z,17.20
2017-10-03T12:39:29.842Z,17.00
2017-10-03T12:42:03.337Z,16.70
2017-10-03T12:44:31.648Z,16.60
2017-10-03T12:47:04.110Z,16.40
2017-10-03T12:49:34.015Z,16.30
2017-10-03T12:52:05.619Z,16.30
2017-10-03T12:54:34.387Z,16.10
2017-10-03T12:57:12.842Z,16.10
2017-10-03T12:59:41.184Z,16.00
2017-10-03T13:02:11.494Z,15.90
2017-10-03T13:04:39.775Z,15.90
2017-10-03T13:07:24.801Z,16.00
2017-10-03T13:09:53.055Z,16.10
2017-10-03T13:12:25.243Z,16.20
2017-10-03T13:14:53.512Z,16.20
2017-10-03T13:17:45.324Z,16.40
2017-10-03T13:20:12.848Z,16.40
2017-10-03T13:22:41.126Z,16.60
2017-10-03T13:25:24.282Z,16.80
2017-10-03T13:27:52.535Z,16.90
2017-10-03T13:30:37.276Z,16.80
2017-10-03T13:33:05.527Z,17.00
2017-10-03T13:35:36.807Z,16.90
2017-10-03T13:38:05.069Z,16.90
2017-10-03T13:40:36.883Z,16.80
2017-10-03T13:43:05.183Z,16.90
2017-10-03T13:45:56.889Z,16.70
2017-10-03T13:48:25.166Z,16.60
2017-10-03T13:51:16.727Z,16.50
2017-10-03T13:53:45.030Z,16.50
2017-10-03T13:56:20.415Z,16.50
2017-10-03T13:58:48.694Z,16.50
2017-10-03T14:01:25.519Z,16.60
2017-10-03T14:03:53.772Z,16.70
2017-10-03T14:06:22.063Z,16.70
2017-10-03T14:08:50.315Z,16.60
2017-10-03T14:11:28.711Z,16.70
2017-10-03T14:13:56.968Z,17.00
2017-10-03T14:16:46.874Z,17.00
2017-10-03T14:19:15.152Z,17.00
2017-10-03T14:21:43.412Z,17.00
2017-10-03T14:24:17.978Z,17.00
2017-10-03T14:26:46.231Z,16.90
2017-10-03T14:29:14.536Z,16.80
2017-10-03T14:31:42.819Z,16.80
2017-10-03T14:34:11.093Z,16.70
2017-10-03T14:36:39.384Z,16.70
2017-10-03T14:39:13.335Z,16.50
2017-10-03T14:41:41.631Z,16.50
2017-10-03T14:44:13.516Z,16.30
2017-10-03T14:46:41.813Z,16.30
2017-10-03T14:49:10.103Z,16.20
2017-10-03T14:54:34.120Z,16.10
2017-10-03T14:57:03.548Z,16.10
2017-10-03T14:59:38.977Z,15.90
2017-10-03T15:02:07.227Z,15.80
2017-10-03T15:04:36.432Z,15.80
2017-10-03T15:07:04.702Z,15.80
2017-10-03T15:09:50.020Z,15.70
2017-10-03T15:12:18.267Z,15.70
2017-10-03T15:17:46.756Z,15.60
2017-10-03T15:20:15.052Z,15.40
2017-10-03T15:22:44.233Z,15.40
2017-10-03T15:25:13.360Z,15.30
2017-10-03T15:27:49.914Z,15.20
2017-10-03T15:30:18.203Z,15.20
2017-10-03T15:32:51.989Z,15.20
2017-10-03T15:35:20.275Z,15.20
2017-10-03T15:40:43.671Z,15.20
2017-10-03T15:43:11.930Z,15.30
2017-10-03T15:45:40.183Z,15.40
2017-10-03T15:48:10.391Z,15.40
2017-10-03T15:50:38.646Z,15.50
2017-10-03T15:56:23.454Z,15.50
2017-10-03T15:58:51.739Z,15.40
2017-10-03T16:01:19.999Z,15.40
2017-10-03T16:03:48.263Z,15.40
2017-10-03T16:06:31.600Z,15.40
2017-10-03T16:08:59.868Z,15.30
2017-10-03T16:11:33.608Z,15.40
2017-10-03T16:14:01.864Z,15.30
2017-10-03T16:16:40.532Z,15.30
2017-10-03T16:19:08.791Z,15.20
2017-10-03T16:21:46.683Z,15.20
2017-10-03T16:24:14.950Z,15.10
2017-10-03T16:26:43.217Z,15.10
2017-10-03T16:29:11.504Z,15.00
2017-10-03T16:31:39.771Z,15.10
2017-10-03T16:34:08.050Z,15.10
2017-10-03T16:36:36.299Z,14.90
2017-10-03T16:39:05.482Z,14.90
2017-10-03T16:41:34.106Z,14.80
2017-10-03T16:44:04.586Z,14.70
2017-10-03T16:46:50.002Z,14.70
2017-10-03T16:49:18.281Z,14.60
2017-10-03T16:51:46.535Z,14.50
2017-10-03T16:54:14.823Z,14.60
2017-10-03T16:57:06.869Z,14.60
2017-10-03T16:59:35.163Z,14.50
2017-10-03T17:02:04.296Z,14.60
2017-10-03T17:04:33.584Z,14.60
2017-10-03T17:07:02.003Z,14.60
2017-10-03T17:09:30.300Z,14.60
2017-10-03T17:11:58.561Z,14.60
2017-10-03T17:14:26.855Z,14.50
2017-10-03T17:16:58.340Z,14.50
2017-10-03T17:19:26.630Z,14.50
2017-10-03T17:21:54.932Z,14.50
2017-10-03T17:24:23.183Z,14.50
2017-10-03T17:26:51.435Z,14.50
2017-10-03T17:29:18.964Z,14.50
2017-10-03T17:31:47.211Z,14.40
2017-10-03T17:34:15.459Z,14.30
2017-10-03T17:36:43.750Z,14.30
2017-10-03T17:39:12.008Z,14.20
2017-10-03T17:41:40.295Z,14.10
2017-10-03T17:44:10.524Z,14.20
2017-10-03T17:46:38.824Z,14.20
2017-10-03T17:49:12.361Z,14.10
2017-10-03T17:51:40.651Z,14.10
2017-10-03T17:57:05.771Z,14.10
2017-10-03T17:59:35.176Z,14.10
2017-10-03T18:02:08.779Z,14.10
2017-10-03T18:04:37.082Z,14.10
2017-10-03T18:10:09.060Z,14.10
2017-10-03T18:12:37.345Z,14.00
2017-10-03T18:15:16.228Z,14.00
2017-10-03T18:17:44.524Z,14.00
2017-10-03T18:20:16.590Z,14.00
2017-10-03T18:22:44.884Z,13.90
2017-10-03T18:28:10.221Z,13.90
2017-10-03T18:30:38.520Z,13.80
2017-10-03T18:33:12.159Z,13.90
2017-10-03T18:35:40.442Z,13.80
2017-10-03T18:38:23.750Z,13.70
2017-10-03T18:40:52.003Z,13.60
2017-10-03T18:43:25.575Z,13.70
2017-10-03T18:45:53.837Z,13.70
2017-10-03T18:48:29.368Z,13.70
2017-10-03T18:50:57.655Z,13.70
2017-10-03T18:53:27.825Z,13.70
2017-10-03T18:55:56.124Z,13.70
2017-10-03T18:58:27.917Z,13.60
2017-10-03T19:00:56.184Z,13.50
2017-10-03T19:03:34.948Z,13.50
2017-10-03T19:06:04.171Z,13.60
2017-10-03T19:08:40.762Z,13.60
2017-10-03T19:11:09.072Z,13.70
2017-10-03T19:13:39.310Z,13.60
2017-10-03T19:16:07.643Z,13.70
2017-10-03T19:18:35.192Z,13.60
2017-10-03T19:21:11.575Z,13.60
2017-10-03T19:23:39.869Z,13.60
2017-10-03T19:26:16.736Z,13.60
2017-10-03T19:28:44.999Z,13.50
2017-10-03T19:31:13.256Z,13.60
2017-10-03T19:33:41.550Z,13.60
2017-10-03T19:36:09.812Z,13.60
2017-10-03T19:38:38.062Z,13.50
2017-10-03T19:46:58.371Z,13.40
2017-10-03T19:49:26.630Z,13.40
2017-10-03T19:51:58.507Z,13.40
2017-10-03T19:54:26.803Z,13.30
2017-10-03T19:56:55.081Z,13.30
2017-10-03T19:59:23.362Z,13.30
2017-10-03T20:02:03.275Z,13.30
2017-10-03T20:04:33.439Z,13.30
2017-10-03T20:07:03.390Z,13.30
2017-10-03T20:09:39.836Z,13.30
2017-10-03T20:12:08.111Z,13.20
2017-10-03T20:14:40.185Z,13.20
2017-10-03T20:17:08.434Z,13.20
2017-10-03T20:19:36.706Z,13.20
2017-10-03T20:22:05.354Z,13.20
2017-10-03T20:24:41.156Z,13.20
2017-10-03T20:27:09.447Z,13.20
2017-10-03T20:29:37.734Z,13.20
2017-10-03T20:32:09.299Z,13.20
2017-10-03T20:34:37.591Z,13.20
2017-10-03T20:37:08.060Z,13.10
2017-10-03T20:39:35.551Z,13.10
2017-10-03T20:42:05.480Z,13.10
2017-10-03T20:44:35.144Z,13.10
2017-10-03T20:47:18.002Z,13.10
2017-10-03T20:49:46.331Z,13.00
2017-10-03T20:52:16.558Z,13.00
2017-10-03T20:54:44.812Z,13.00
2017-10-03T20:57:18.697Z,13.00
2017-10-03T20:59:46.989Z,13.10
2017-10-03T21:02:30.232Z,13.00
2017-10-03T21:04:58.488Z,13.00
2017-10-03T21:07:26.776Z,13.00
2017-10-03T21:09:55.064Z,13.10
2017-10-03T21:12:31.437Z,13.10
2017-10-03T21:14:59.686Z,13.10
2017-10-03T21:17:47.932Z,12.90
2017-10-03T21:20:16.183Z,12.90
2017-10-03T21:22:46.516Z,12.90
2017-10-03T21:25:14.770Z,12.90
2017-10-03T21:27:44.011Z,12.90
2017-10-03T21:30:12.300Z,13.00
2017-10-03T21:32:40.582Z,12.90
2017-10-03T21:35:08.868Z,13.00
2017-10-03T21:37:51.733Z,13.00
2017-10-03T21:40:19.215Z,13.00
2017-10-03T21:43:02.078Z,13.00
2017-10-03T21:45:30.328Z,13.00
2017-10-03T21:48:11.924Z,13.00
2017-10-03T21:50:40.212Z,13.00
2017-10-03T21:53:13.784Z,13.00
2017-10-03T21:55:42.073Z,13.00
2017-10-03T21:58:20.636Z,13.00
2017-10-03T22:00:48.892Z,13.10
2017-10-03T22:03:18.168Z,13.00
2017-10-03T22:05:46.447Z,13.10
2017-10-03T22:11:25.944Z,13.00
2017-10-03T22:13:54.204Z,12.90
2017-10-03T22:16:34.109Z,12.80
2017-10-03T22:19:03.734Z,12.90
2017-10-03T22:21:35.716Z,12.90
2017-10-03T22:24:05.234Z,12.90
2017-10-03T22:26:45.611Z,12.90
2017-10-03T22:29:13.864Z,12.80
2017-10-03T22:32:06.040Z,12.90
2017-10-03T22:34:35.111Z,12.80
2017-10-03T22:37:04.995Z,12.80
2017-10-03T22:39:34.181Z,12.80
2017-10-03T22:42:04.582Z,12.80
2017-10-03T22:44:42.558Z,12.80
2017-10-03T22:47:10.865Z,12.80
2017-10-03T22:49:45.819Z,12.80
2017-10-03T22:52:19.706Z,12.90
2017-10-03T22:54:53.212Z,12.80
2017-10-03T22:57:21.495Z,12.80
2017-10-03T22:59:49.780Z,12.80
2017-10-03T23:02:18.031Z,12.80
2017-10-03T23:04:46.330Z,12.80
2017-10-03T23:07:14.587Z,12.80
2017-10-03T23:09:42.921Z,12.80
2017-10-03T23:12:11.180Z,12.70
2017-10-03T23:14:49.551Z,12.70
2017-10-03T23:17:17.808Z,12.70
2017-10-03T23:19:49.984Z,12.70
2017-10-03T23:22:18.231Z,12.70
2017-10-03T23:27:39.704Z,12.80
2017-10-03T23:30:07.991Z,12.70
2017-10-03T23:32:36.248Z,12.70
2017-10-03T23:35:05.621Z,12.60
2017-10-03T23:37:33.523Z,12.60
2017-10-03T23:40:01.772Z,12.70
2017-10-03T23:42:35.630Z,12.80
2017-10-03T23:45:05.151Z,12.70
2017-10-03T23:47:34.727Z,12.70
2017-10-03T23:50:04.164Z,12.70
2017-10-03T23:52:40.720Z,12.70
2017-10-03T23:55:08.976Z,12.70
2017-10-03T23:57:47.051Z,12.60
